Time;durP1;ratioP1;P1;durP2;ratioP2;P2;SDS_P1;SDS_P2;PMS_P1;PMS_P2;Temp;Humidity;BMP_temperature;BMP_pressure;BME280_temperature;BME280_humidity;BME280_pressure;Samples;Min_cycle;Max_cycle;Signal;HPM_P1;HPM_P2
2021/01/21 00:01:54;;;;;;;11.13;6.28;;;22.50;30.50;;;;;;6101690;28;80661;-58
2021/01/21 00:04:55;;;;;;;12.02;6.43;;;22.60;30.50;;;;;;6098631;28;80457;-58
2021/01/21 00:07:55;;;;;;;12.40;6.43;;;22.50;30.60;;;;;;6100726;28;80840;-56
2021/01/21 00:10:56;;;;;;;10.60;6.20;;;22.60;30.90;;;;;;6099557;28;80780;-59
2021/01/21 00:13:57;;;;;;;11.93;6.70;;;22.60;31.10;;;;;;6100841;28;80359;-57
2021/01/21 00:16:58;;;;;;;10.90;6.28;;;22.60;31.10;;;;;;6092444;28;82124;-58
2021/01/21 00:19:58;;;;;;;13.85;7.22;;;22.60;31.20;;;;;;6090100;28;80323;-57
2021/01/21 00:22:59;;;;;;;10.18;6.25;;;22.60;31.30;;;;;;6095966;28;80425;-58
2021/01/21 00:26:00;;;;;;;12.25;6.78;;;22.50;31.10;;;;;;6092778;28;80518;-58
2021/01/21 00:29:00;;;;;;;12.02;6.60;;;22.50;30.90;;;;;;6101270;28;83206;-58
2021/01/21 00:32:01;;;;;;;14.02;6.68;;;22.50;30.70;;;;;;6101899;28;80761;-58
2021/01/21 00:35:01;;;;;;;10.00;6.63;;;22.50;30.60;;;;;;6086598;28;82371;-59
2021/01/21 00:38:02;;;;;;;9.77;6.13;;;22.40;30.60;;;;;;6098749;28;81991;-58
2021/01/21 00:41:02;;;;;;;10.82;6.57;;;22.50;30.50;;;;;;6094401;28;81031;-58
2021/01/21 00:44:03;;;;;;;12.43;6.47;;;22.50;30.80;;;;;;6097050;28;80634;-58
2021/01/21 00:47:04;;;;;;;10.07;6.28;;;22.50;30.60;;;;;;6099597;28;80951;-58
2021/01/21 00:50:04;;;;;;;10.43;6.55;;;22.50;30.60;;;;;;6095908;28;83924;-58
2021/01/21 00:53:05;;;;;;;10.98;6.70;;;22.50;31.30;;;;;;6094817;28;81716;-58
2021/01/21 00:56:05;;;;;;;15.45;7.65;;;22.50;30.60;;;;;;6098542;28;80776;-57
2021/01/21 00:59:07;;;;;;;12.45;6.60;;;22.50;30.60;;;;;;6102413;28;81862;-57
2021/01/21 01:02:07;;;;;;;11.55;6.60;;;22.40;30.40;;;;;;6095840;28;82792;-57
2021/01/21 01:05:08;;;;;;;9.88;6.35;;;22.40;30.50;;;;;;6113209;28;83620;-58
2021/01/21 01:08:08;;;;;;;11.48;7.07;;;22.40;30.30;;;;;;6103525;28;81093;-58
2021/01/21 01:11:09;;;;;;;10.50;6.25;;;22.40;30.20;;;;;;6104494;28;81135;-57
2021/01/21 01:14:10;;;;;;;10.60;6.25;;;22.40;30.30;;;;;;6095035;28;83459;-58
2021/01/21 01:17:10;;;;;;;11.95;6.78;;;22.40;30.30;;;;;;6102657;28;83258;-57
2021/01/21 01:20:18;;;;;;;11.27;6.68;;;22.40;30.30;;;;;;6115413;28;81465;-57
2021/01/21 01:23:19;;;;;;;12.18;7.18;;;22.40;30.20;;;;;;6114917;28;83310;-57
2021/01/21 01:26:20;;;;;;;15.02;6.80;;;22.40;30.20;;;;;;6098787;28;83080;-57
2021/01/21 01:29:21;;;;;;;12.10;7.15;;;22.40;30.10;;;;;;6094510;28;81536;-57
2021/01/21 01:32:24;;;;;;;12.20;6.47;;;22.40;30.10;;;;;;6091302;28;80702;-58
2021/01/21 01:35:28;;;;;;;11.23;7.30;;;22.40;30.00;;;;;;6095742;28;82730;-58
2021/01/21 01:38:29;;;;;;;10.18;6.18;;;22.30;30.00;;;;;;6100345;28;81316;-57
2021/01/21 01:41:36;;;;;;;11.07;6.28;;;22.30;30.00;;;;;;6100206;28;81727;-58
2021/01/21 01:44:37;;;;;;;11.20;6.30;;;22.30;30.00;;;;;;6097106;28;82684;-59
2021/01/21 01:47:37;;;;;;;12.38;7.07;;;22.30;30.00;;;;;;6115682;28;83345;-58
2021/01/21 01:50:38;;;;;;;10.95;6.70;;;22.30;30.00;;;;;;6099741;28;83479;-58
2021/01/21 01:53:39;;;;;;;10.70;7.10;;;22.30;30.00;;;;;;6101179;28;83335;-58
2021/01/21 01:56:48;;;;;;;10.95;6.55;;;22.30;30.20;;;;;;6119221;28;83308;-58
2021/01/21 01:59:53;;;;;;;9.63;5.90;;;22.30;30.10;;;;;;6101598;28;82301;-59
2021/01/21 02:02:54;;;;;;;10.18;5.88;;;22.30;30.20;;;;;;6119347;28;80974;-59
2021/01/21 02:05:55;;;;;;;11.75;6.03;;;22.30;30.30;;;;;;6102570;28;81647;-58
2021/01/21 02:08:56;;;;;;;10.82;6.13;;;22.30;30.40;;;;;;6102101;28;80469;-58
2021/01/21 02:11:57;;;;;;;12.77;6.25;;;22.30;30.40;;;;;;6101815;28;82921;-59
2021/01/21 02:14:58;;;;;;;8.48;4.93;;;22.40;30.60;;;;;;6096705;28;81922;-58
2021/01/21 02:18:03;;;;;;;8.97;5.67;;;22.30;30.50;;;;;;6100238;28;82691;-58
2021/01/21 02:21:04;;;;;;;9.93;6.15;;;22.40;30.60;;;;;;6099500;28;80456;-59
2021/01/21 02:24:05;;;;;;;9.68;5.70;;;22.40;30.80;;;;;;6106828;28;81375;-59
2021/01/21 02:27:12;;;;;;;8.15;4.78;;;22.30;30.80;;;;;;6099760;28;86575;-58
2021/01/21 02:30:13;;;;;;;9.55;5.55;;;22.30;30.80;;;;;;6103475;28;81382;-58
2021/01/21 02:33:13;;;;;;;11.85;6.25;;;22.40;30.80;;;;;;6103256;28;82946;-59
2021/01/21 02:36:14;;;;;;;8.73;5.32;;;22.30;30.70;;;;;;6119454;28;82549;-58
2021/01/21 02:39:16;;;;;;;9.75;5.57;;;22.30;30.70;;;;;;6120064;28;82762;-58
2021/01/21 02:42:20;;;;;;;7.55;4.95;;;22.40;30.80;;;;;;6104613;28;81278;-58
2021/01/21 02:45:21;;;;;;;9.25;5.00;;;22.40;30.80;;;;;;6098941;28;81469;-58
2021/01/21 02:48:27;;;;;;;8.73;5.25;;;22.40;30.70;;;;;;6101766;28;80729;-57
2021/01/21 02:51:37;;;;;;;9.18;4.93;;;22.40;30.70;;;;;;6097757;28;82421;-56
2021/01/21 02:54:38;;;;;;;8.73;5.18;;;22.40;30.70;;;;;;6102799;28;82815;-57
2021/01/21 02:57:38;;;;;;;10.30;5.65;;;22.40;30.70;;;;;;6104677;28;80295;-57
2021/01/21 03:00:39;;;;;;;9.63;5.43;;;22.40;30.80;;;;;;6104326;28;82856;-58
2021/01/21 03:03:39;;;;;;;9.85;5.60;;;22.30;30.70;;;;;;6102666;28;80981;-57
2021/01/21 03:06:45;;;;;;;8.43;5.80;;;22.40;30.70;;;;;;6100049;28;83224;-57
2021/01/21 03:10:03;;;;;;;10.90;6.32;;;22.30;30.70;;;;;;6099018;28;87524;-58
2021/01/21 03:13:06;;;;;;;11.75;6.18;;;22.30;30.70;;;;;;6119217;28;80554;-58
2021/01/21 03:16:17;;;;;;;10.18;6.03;;;22.30;30.70;;;;;;6105606;28;82696;-58
2021/01/21 03:19:19;;;;;;;13.55;7.45;;;22.30;30.80;;;;;;6117301;28;82977;-58
2021/01/21 03:22:20;;;;;;;9.45;6.00;;;22.30;30.80;;;;;;6097268;28;80773;-57
2021/01/21 03:25:21;;;;;;;10.45;6.18;;;22.30;30.70;;;;;;6097095;28;80510;-58
2021/01/21 03:28:32;;;;;;;12.48;7.00;;;22.30;30.70;;;;;;6115580;28;83160;-58
2021/01/21 03:31:32;;;;;;;11.63;7.00;;;22.30;30.70;;;;;;6102987;28;83278;-58
2021/01/21 03:34:33;;;;;;;11.20;6.90;;;22.30;30.60;;;;;;6092338;28;81789;-58
2021/01/21 03:37:39;;;;;;;;;;;22.30;30.60;;;;;;6099198;28;83335;-58
2021/01/21 03:40:39;;;;;;;13.45;6.55;;;22.30;30.60;;;;;;6102982;28;79272;-58
2021/01/21 03:43:40;;;;;;;9.60;6.35;;;22.20;30.50;;;;;;6103490;28;81058;-58
2021/01/21 03:46:56;;;;;;;11.40;6.93;;;22.20;30.50;;;;;;6095485;28;82660;-58
2021/01/21 03:50:19;;;;;;;13.50;7.40;;;22.20;30.50;;;;;;6099311;28;82836;-58
2021/01/21 03:53:22;;;;;;;11.02;7.15;;;22.20;30.50;;;;;;6115357;28;82507;-58
2021/01/21 03:56:37;;;;;;;12.60;7.43;;;22.20;30.40;;;;;;6100452;28;80607;-58
2021/01/21 03:59:38;;;;;;;12.13;7.40;;;22.20;30.40;;;;;;6116746;28;83260;-58
2021/01/21 04:02:39;;;;;;;14.38;8.23;;;22.20;30.30;;;;;;6097742;28;83323;-57
2021/01/21 04:05:49;;;;;;;13.82;8.05;;;22.20;30.30;;;;;;6103366;28;83485;-57
2021/01/21 04:08:54;;;;;;;14.35;8.25;;;22.20;30.30;;;;;;6083424;28;81983;-57
2021/01/21 04:12:15;;;;;;;14.57;7.78;;;22.30;30.20;;;;;;6102497;28;81445;-58
2021/01/21 04:15:16;;;;;;;13.30;8.13;;;22.30;30.60;;;;;;6090755;28;82541;-58
2021/01/21 04:18:19;;;;;;;16.98;8.98;;;22.30;30.40;;;;;;6092197;28;83799;-57
2021/01/21 04:21:41;;;;;;;15.18;9.07;;;22.20;30.30;;;;;;6116644;28;82050;-58
2021/01/21 04:24:48;;;;;;;14.45;8.75;;;22.30;30.30;;;;;;6094829;28;83717;-58
2021/01/21 04:27:59;;;;;;;16.23;9.23;;;22.30;30.30;;;;;;6098690;28;87491;-58
2021/01/21 04:30:59;;;;;;;16.13;8.63;;;22.20;30.20;;;;;;6103958;28;82878;-58
2021/01/21 04:34:00;;;;;;;15.88;9.15;;;22.20;30.10;;;;;;6098435;28;83215;-58
2021/01/21 04:37:02;;;;;;;14.93;9.13;;;22.20;30.10;;;;;;6077905;28;81939;-58
2021/01/21 04:40:26;;;;;;;19.17;11.07;;;22.20;30.00;;;;;;6081418;28;81099;-57
2021/01/21 04:43:46;;;;;;;15.73;9.50;;;22.20;29.90;;;;;;6098194;28;83237;-58
2021/01/21 04:46:54;;;;;;;15.98;9.70;;;22.20;29.90;;;;;;6099213;28;86164;-56
2021/01/21 04:49:57;;;;;;;15.77;10.10;;;22.30;30.00;;;;;;6093158;28;80757;-58
2021/01/21 04:52:58;;;;;;;16.52;9.70;;;22.30;29.50;;;;;;6093917;28;83467;-58
2021/01/21 04:56:04;;;;;;;20.45;10.55;;;22.30;29.40;;;;;;6093414;28;84607;-58
2021/01/21 04:59:20;;;;;;;;;;;22.30;29.20;;;;;;6101807;28;83787;-58
2021/01/21 05:02:23;;;;;;;20.63;11.50;;;22.40;29.10;;;;;;6108940;28;82948;-58
2021/01/21 05:05:39;;;;;;;20.33;11.03;;;22.40;29.10;;;;;;6108363;28;83434;-58
2021/01/21 05:08:43;;;;;;;23.15;11.73;;;22.40;29.00;;;;;;6113415;28;86057;-58
2021/01/21 05:12:02;;;;;;;24.73;13.02;;;22.40;29.00;;;;;;6101757;28;83434;-57
2021/01/21 05:15:03;;;;;;;19.95;11.73;;;22.50;29.10;;;;;;6101701;28;83671;-58
2021/01/21 05:18:25;;;;;;;23.63;13.07;;;22.50;29.20;;;;;;6113096;28;94818;-58
2021/01/21 05:21:55;;;;;;;24.75;13.10;;;22.50;29.10;;;;;;6030577;28;87315;-58
2021/01/21 05:25:28;;;;;;;23.20;13.05;;;22.60;29.70;;;;;;6052886;28;85092;-58
2021/01/21 05:28:31;;;;;;;20.83;11.25;;;22.60;29.10;;;;;;6103146;28;84448;-58
2021/01/21 05:31:39;;;;;;;22.52;11.65;;;22.60;29.60;;;;;;6097417;28;85889;-58
2021/01/21 05:34:40;;;;;;;22.10;12.95;;;22.60;29.40;;;;;;6111763;28;84570;-58
2021/01/21 05:37:54;;;;;;;24.98;13.90;;;22.60;29.10;;;;;;6091562;28;83432;-58
2021/01/21 05:41:21;;;;;;;22.77;12.95;;;22.70;29.00;;;;;;6081590;28;84035;-58
2021/01/21 05:44:34;;;;;;;25.00;13.68;;;22.70;29.70;;;;;;6095884;28;85588;-58
2021/01/21 05:47:54;;;;;;;24.58;13.82;;;22.70;29.20;;;;;;6092947;28;85954;-58
2021/01/21 05:50:55;;;;;;;26.80;14.32;;;22.70;29.20;;;;;;6097616;28;84081;-59
2021/01/21 05:53:56;;;;;;;24.80;14.15;;;22.70;29.30;;;;;;6116204;28;85428;-58
2021/01/21 05:57:09;;;;;;;26.60;13.80;;;22.80;29.50;;;;;;6113037;28;84781;-58
2021/01/21 06:00:10;;;;;;;21.70;13.02;;;22.90;29.80;;;;;;6100846;28;83412;-58
2021/01/21 06:03:16;;;;;;;26.52;13.98;;;22.90;30.00;;;;;;6099820;28;82800;-59
2021/01/21 06:06:29;;;;;;;24.85;13.40;;;22.90;30.10;;;;;;6109265;28;85409;-58
2021/01/21 06:09:31;;;;;;;21.77;12.95;;;23.00;30.30;;;;;;6099912;28;84949;-58
2021/01/21 06:12:31;;;;;;;24.60;13.68;;;23.00;30.70;;;;;;6098567;28;83431;-58
2021/01/21 06:15:32;;;;;;;24.60;13.65;;;23.00;30.40;;;;;;6101203;28;84148;-58
2021/01/21 06:18:33;;;;;;;28.83;12.63;;;23.00;30.90;;;;;;6101178;28;82947;-58
2021/01/21 06:21:48;;;;;;;24.43;12.40;;;23.00;30.90;;;;;;6114216;28;84070;-58
2021/01/21 06:25:12;;;;;;;19.00;10.15;;;23.00;31.70;;;;;;6091993;28;88574;-58
2021/01/21 06:28:12;;;;;;;19.98;10.05;;;23.10;33.20;;;;;;6093509;28;83154;-58
2021/01/21 06:31:13;;;;;;;15.30;9.07;;;23.10;34.10;;;;;;6097029;28;83505;-58
2021/01/21 06:34:14;;;;;;;14.98;8.38;;;23.10;34.90;;;;;;6100834;28;82814;-59
2021/01/21 06:37:14;;;;;;;15.00;8.15;;;23.10;35.70;;;;;;6105189;28;80731;-58
2021/01/21 06:40:15;;;;;;;12.77;7.50;;;23.10;36.20;;;;;;6072140;28;80341;-59
2021/01/21 06:43:15;;;;;;;18.50;8.73;;;23.10;37.00;;;;;;6091253;28;83284;-63
2021/01/21 06:46:16;;;;;;;11.73;6.82;;;23.10;37.20;;;;;;6099043;28;81236;-61
2021/01/21 06:49:17;;;;;;;13.65;7.07;;;23.10;37.40;;;;;;6099547;28;90228;-57
2021/01/21 06:52:17;;;;;;;16.90;7.43;;;23.10;37.50;;;;;;6071902;28;81370;-58
2021/01/21 06:55:18;;;;;;;13.57;7.32;;;23.10;37.40;;;;;;6094670;28;80851;-58
2021/01/21 06:58:18;;;;;;;15.35;7.63;;;23.10;37.40;;;;;;6097621;28;81617;-59
2021/01/21 07:01:19;;;;;;;13.05;7.22;;;23.10;37.80;;;;;;6104984;28;80462;-58
2021/01/21 07:04:21;;;;;;;18.60;8.80;;;23.10;37.80;;;;;;6087566;28;80255;-59
2021/01/21 07:07:22;;;;;;;17.17;8.30;;;23.10;37.60;;;;;;6104938;28;84895;-59
2021/01/21 07:10:22;;;;;;;13.50;7.57;;;23.10;37.40;;;;;;6085852;28;82883;-58
2021/01/21 07:13:23;;;;;;;15.60;7.38;;;23.10;37.60;;;;;;6081906;28;80580;-58
2021/01/21 07:16:23;;;;;;;18.65;9.82;;;23.10;38.20;;;;;;6078805;28;80423;-58
2021/01/21 07:19:24;;;;;;;15.48;8.93;;;23.10;37.50;;;;;;6075435;28;81838;-58
2021/01/21 07:22:24;;;;;;;17.70;8.88;;;23.00;37.70;;;;;;6061592;28;80640;-58
2021/01/21 07:25:25;;;;;;;17.02;9.82;;;23.00;37.70;;;;;;6067866;28;81187;-58
2021/01/21 07:28:25;;;;;;;19.60;10.75;;;23.00;37.50;;;;;;6079560;28;80621;-58
2021/01/21 07:31:26;;;;;;;19.52;10.68;;;23.00;37.20;;;;;;6074967;28;83426;-58
2021/01/21 07:34:26;;;;;;;21.90;11.13;;;23.00;37.30;;;;;;6068990;28;83625;-59
2021/01/21 07:37:27;;;;;;;20.40;10.38;;;23.00;36.80;;;;;;6076671;28;84314;-59
2021/01/21 07:40:28;;;;;;;20.95;12.25;;;23.00;36.90;;;;;;6069266;28;84693;-58
2021/01/21 07:43:28;;;;;;;16.90;9.32;;;23.00;36.60;;;;;;6076390;28;84137;-58
2021/01/21 07:46:29;;;;;;;18.00;10.02;;;23.00;37.10;;;;;;6059975;28;83482;-58
2021/01/21 07:49:29;;;;;;;15.77;8.60;;;23.00;36.60;;;;;;6070784;28;83980;-59
2021/01/21 07:52:30;;;;;;;15.43;8.85;;;23.00;37.20;;;;;;6075295;28;82817;-59
2021/01/21 07:55:31;;;;;;;17.75;9.32;;;23.00;36.60;;;;;;6077794;28;81013;-59
2021/01/21 07:58:35;;;;;;;14.00;7.38;;;23.00;36.60;;;;;;6079687;28;80425;-58
2021/01/21 08:01:35;;;;;;;17.92;8.43;;;23.00;36.90;;;;;;6078111;28;80923;-59
2021/01/21 08:04:36;;;;;;;14.00;7.90;;;23.00;36.30;;;;;;6069113;28;81617;-59
2021/01/21 08:07:36;;;;;;;13.18;7.15;;;23.00;36.00;;;;;;6079064;28;81369;-59
2021/01/21 08:10:37;;;;;;;15.20;8.15;;;23.00;35.90;;;;;;6097734;28;80701;-59
2021/01/21 08:13:38;;;;;;;16.30;8.30;;;23.00;35.20;;;;;;6102726;28;81029;-58
2021/01/21 08:16:38;;;;;;;12.82;7.50;;;23.00;34.80;;;;;;6101991;28;82465;-60
2021/01/21 08:19:39;;;;;;;12.80;7.35;;;23.10;34.50;;;;;;6102904;28;80254;-59
2021/01/21 08:22:39;;;;;;;12.45;7.38;;;23.10;34.00;;;;;;6102688;28;81545;-59
2021/01/21 08:25:40;;;;;;;13.52;7.65;;;23.10;33.80;;;;;;6091693;28;81225;-59
2021/01/21 08:28:41;;;;;;;12.40;7.32;;;23.10;33.50;;;;;;6091570;28;83581;-63
2021/01/21 08:31:41;;;;;;;11.90;7.45;;;23.20;33.20;;;;;;6096477;28;80793;-59
2021/01/21 08:34:42;;;;;;;13.40;7.38;;;23.20;32.90;;;;;;6093201;28;80705;-58
2021/01/21 08:37:42;;;;;;;11.68;6.90;;;23.20;32.60;;;;;;6101678;28;80718;-60
2021/01/21 08:40:43;;;;;;;14.88;7.95;;;23.30;32.40;;;;;;6101650;28;80756;-58
2021/01/21 08:43:43;;;;;;;11.27;6.68;;;23.30;32.30;;;;;;6103647;28;80477;-59
2021/01/21 08:46:44;;;;;;;12.45;6.60;;;23.40;31.90;;;;;;6102265;28;80740;-59
2021/01/21 08:49:44;;;;;;;17.17;7.47;;;23.40;31.90;;;;;;6098867;28;81720;-58
2021/01/21 08:52:45;;;;;;;12.40;7.68;;;23.40;31.70;;;;;;6094202;28;81599;-58
2021/01/21 08:55:46;;;;;;;15.68;8.35;;;23.50;31.80;;;;;;6099714;28;80308;-58
2021/01/21 08:58:46;;;;;;;14.60;7.35;;;23.50;31.40;;;;;;6100247;28;81243;-58
2021/01/21 09:01:47;;;;;;;15.52;7.80;;;23.50;31.20;;;;;;6101712;28;84957;-58
2021/01/21 09:04:47;;;;;;;10.93;6.70;;;23.60;31.20;;;;;;6100631;28;80563;-58
2021/01/21 09:07:48;;;;;;;15.35;7.75;;;23.70;31.20;;;;;;6102985;28;80513;-58
2021/01/21 09:10:49;;;;;;;11.40;6.93;;;23.70;31.00;;;;;;6099530;28;80781;-58
2021/01/21 09:13:50;;;;;;;11.77;7.35;;;23.80;31.40;;;;;;6102710;28;80756;-58
2021/01/21 09:16:50;;;;;;;9.93;5.50;;;23.80;31.80;;;;;;6105835;28;80252;-57
2021/01/21 09:19:51;;;;;;;11.45;6.63;;;23.80;32.40;;;;;;6098216;28;81286;-56
2021/01/21 09:22:51;;;;;;;14.35;7.18;;;23.90;32.40;;;;;;6096506;28;81156;-58
2021/01/21 09:25:52;;;;;;;14.38;8.07;;;23.90;32.20;;;;;;6102991;28;83634;-58
2021/01/21 09:28:52;;;;;;;15.25;8.85;;;24.00;32.60;;;;;;6101837;28;80550;-58
2021/01/21 09:31:53;;;;;;;15.90;8.43;;;24.00;32.00;;;;;;6097004;28;82894;-58
2021/01/21 09:34:54;;;;;;;16.85;9.85;;;24.00;32.30;;;;;;6103136;28;81169;-56
2021/01/21 09:37:54;;;;;;;16.50;8.77;;;24.00;32.70;;;;;;6096840;28;81911;-59
2021/01/21 09:40:55;;;;;;;23.58;10.25;;;24.10;32.70;;;;;;6105142;28;80465;-57
2021/01/21 09:43:55;;;;;;;23.90;10.10;;;24.10;32.30;;;;;;6104020;28;83623;-57
2021/01/21 09:46:56;;;;;;;20.42;9.93;;;24.20;32.30;;;;;;6101346;28;84079;-58
2021/01/21 09:49:56;;;;;;;28.52;11.10;;;24.20;32.30;;;;;;6101020;28;84156;-58
2021/01/21 09:52:57;;;;;;;18.83;10.15;;;24.20;32.60;;;;;;6099263;28;83752;-58
2021/01/21 09:55:58;;;;;;;20.92;10.75;;;24.30;32.40;;;;;;6101091;28;83097;-58
2021/01/21 09:58:58;;;;;;;19.55;11.38;;;24.20;32.40;;;;;;6094059;28;83365;-59
2021/01/21 10:01:59;;;;;;;21.45;11.40;;;24.30;32.20;;;;;;6094112;28;85778;-58
2021/01/21 10:04:59;;;;;;;22.35;12.63;;;24.30;32.40;;;;;;6089937;28;83397;-58
2021/01/21 10:08:00;;;;;;;17.38;10.68;;;24.30;32.50;;;;;;6094847;28;83437;-58
2021/01/21 10:11:00;;;;;;;23.85;11.35;;;24.30;33.50;;;;;;6096820;28;83309;-56
2021/01/21 10:14:01;;;;;;;19.55;11.30;;;24.40;33.90;;;;;;6098969;28;83707;-57
2021/01/21 10:17:07;;;;;;;27.48;12.95;;;24.40;34.00;;;;;;6096299;28;83254;-58
2021/01/21 10:20:08;;;;;;;23.25;12.10;;;24.40;34.20;;;;;;6099250;28;83523;-58
2021/01/21 10:23:08;;;;;;;21.75;12.60;;;24.50;34.10;;;;;;6081818;28;83885;-58
2021/01/21 10:26:09;;;;;;;23.42;12.15;;;24.50;33.60;;;;;;6098219;28;84714;-58
2021/01/21 10:29:09;;;;;;;25.38;13.13;;;24.60;33.70;;;;;;6100922;28;83355;-57
2021/01/21 10:32:10;;;;;;;24.63;11.68;;;24.60;33.40;;;;;;6100996;28;83680;-58
2021/01/21 10:35:10;;;;;;;24.10;12.73;;;24.60;33.60;;;;;;6096237;28;83505;-58
2021/01/21 10:38:11;;;;;;;29.55;13.25;;;24.60;33.40;;;;;;6098734;28;86342;-57
2021/01/21 10:41:12;;;;;;;24.88;13.05;;;24.60;33.20;;;;;;6100577;28;82872;-57
2021/01/21 10:44:12;;;;;;;27.92;12.80;;;24.60;33.20;;;;;;6081676;28;83310;-58
2021/01/21 10:47:13;;;;;;;26.80;12.20;;;24.70;33.30;;;;;;6090381;28;84333;-59
2021/01/21 10:50:13;;;;;;;25.20;12.48;;;24.70;33.90;;;;;;6095794;28;83604;-59
2021/01/21 10:53:14;;;;;;;26.70;12.50;;;24.70;33.60;;;;;;6095972;28;83719;-58
2021/01/21 10:56:14;;;;;;;22.73;12.55;;;24.70;33.20;;;;;;6098828;28;82795;-58
2021/01/21 10:59:15;;;;;;;28.30;12.82;;;24.80;34.00;;;;;;6100587;28;84018;-62
2021/01/21 11:02:15;;;;;;;23.13;13.25;;;24.80;33.50;;;;;;6086808;28;83417;-57
2021/01/21 11:05:16;;;;;;;31.73;14.18;;;24.80;33.00;;;;;;6100250;28;83759;-57
2021/01/21 11:08:17;;;;;;;24.77;13.45;;;24.90;33.00;;;;;;6099370;28;83455;-58
2021/01/21 11:11:17;;;;;;;26.13;13.73;;;24.90;32.80;;;;;;6100914;28;85302;-59
2021/01/21 11:14:18;;;;;;;23.58;14.10;;;25.00;32.80;;;;;;6109927;28;83482;-59
2021/01/21 11:17:18;;;;;;;26.38;13.05;;;25.00;32.70;;;;;;6095565;28;83186;-58
2021/01/21 11:20:19;;;;;;;26.67;13.48;;;25.00;32.40;;;;;;6095124;28;84008;-63
2021/01/21 11:23:19;;;;;;;28.17;13.57;;;25.00;32.50;;;;;;6095967;28;83852;-62
2021/01/21 11:26:20;;;;;;;30.30;15.05;;;25.10;32.30;;;;;;6097468;28;84954;-61
2021/01/21 11:29:20;;;;;;;27.27;14.73;;;25.20;32.90;;;;;;6095292;28;83857;-61
2021/01/21 11:32:21;;;;;;;30.25;14.98;;;25.20;32.70;;;;;;6097991;28;83879;-61
2021/01/21 11:35:21;;;;;;;30.10;15.85;;;25.30;33.70;;;;;;6098820;28;82952;-63
2021/01/21 11:38:22;;;;;;;29.30;14.63;;;25.40;33.40;;;;;;6085849;28;92371;-60
2021/01/21 11:41:22;;;;;;;28.10;14.63;;;25.40;33.40;;;;;;6093625;28;83098;-62
2021/01/21 11:44:23;;;;;;;25.02;13.93;;;25.40;33.20;;;;;;6098692;28;83761;-61
2021/01/21 11:47:24;;;;;;;27.13;13.73;;;25.50;33.60;;;;;;6114762;28;84839;-61
2021/01/21 11:50:24;;;;;;;23.92;13.50;;;25.50;33.10;;;;;;6089921;28;83027;-61
2021/01/21 11:53:26;;;;;;;22.25;12.73;;;25.50;33.70;;;;;;6095310;28;93788;-62
2021/01/21 11:56:26;;;;;;;22.50;13.43;;;25.60;33.40;;;;;;6093766;28;84006;-62
2021/01/21 11:59:27;;;;;;;22.52;11.27;;;25.60;33.10;;;;;;6094034;28;83578;-62
2021/01/21 12:02:27;;;;;;;23.20;12.02;;;25.50;32.70;;;;;;6096306;28;84163;-63
2021/01/21 12:05:28;;;;;;;21.50;12.45;;;25.50;33.10;;;;;;6096993;28;82905;-61
2021/01/21 12:08:28;;;;;;;20.48;11.00;;;25.50;33.10;;;;;;6097962;28;83936;-63
2021/01/21 12:11:29;;;;;;;21.15;11.93;;;25.50;33.10;;;;;;6090169;28;83532;-62
2021/01/21 12:14:30;;;;;;;21.58;11.35;;;25.50;32.60;;;;;;6093108;28;83248;-65
2021/01/21 12:17:31;;;;;;;24.75;11.57;;;25.50;32.60;;;;;;6088377;28;87703;-60
2021/01/21 12:20:31;;;;;;;19.05;10.95;;;25.50;32.50;;;;;;6100597;28;84882;-59
2021/01/21 12:23:32;;;;;;;18.90;11.00;;;25.50;32.80;;;;;;6093931;28;84408;-59
2021/01/21 12:26:33;;;;;;;18.88;11.50;;;25.50;33.30;;;;;;6097223;28;84668;-58
2021/01/21 12:29:33;;;;;;;17.80;10.93;;;25.50;33.40;;;;;;6093872;28;83394;-58
2021/01/21 12:32:34;;;;;;;24.05;11.27;;;25.60;33.50;;;;;;6099640;28;83328;-59
2021/01/21 12:35:34;;;;;;;18.48;10.85;;;25.60;34.10;;;;;;6083876;28;84354;-60
2021/01/21 12:38:35;;;;;;;21.02;11.45;;;25.50;32.80;;;;;;6094561;28;83566;-59
2021/01/21 12:41:36;;;;;;;21.20;12.02;;;25.60;33.10;;;;;;6095456;28;84160;-59
2021/01/21 12:44:36;;;;;;;22.20;11.80;;;25.60;32.50;;;;;;6094989;28;85279;-59
2021/01/21 12:47:37;;;;;;;24.05;11.93;;;25.50;33.40;;;;;;6097734;28;86067;-60
2021/01/21 12:50:37;;;;;;;22.20;12.07;;;25.60;32.30;;;;;;6094628;28;83723;-59
2021/01/21 12:53:38;;;;;;;22.20;12.65;;;25.50;32.40;;;;;;6101701;28;84635;-60
2021/01/21 12:56:38;;;;;;;20.63;11.90;;;25.50;32.10;;;;;;6102365;28;83103;-58
2021/01/21 12:59:39;;;;;;;20.63;11.00;;;25.50;32.20;;;;;;6099164;28;84068;-57
2021/01/21 13:02:39;;;;;;;21.55;11.32;;;25.40;32.00;;;;;;6099629;28;85839;-58
2021/01/21 13:05:40;;;;;;;21.85;10.98;;;25.40;31.80;;;;;;6101662;28;83408;-58
2021/01/21 13:08:41;;;;;;;19.85;11.60;;;25.40;31.70;;;;;;6094511;28;83727;-57
2021/01/21 13:11:41;;;;;;;18.70;10.23;;;25.40;31.60;;;;;;6102030;28;84344;-57
2021/01/21 13:14:42;;;;;;;21.58;11.18;;;25.50;31.60;;;;;;6097162;28;83406;-56
2021/01/21 13:17:42;;;;;;;17.08;10.15;;;25.50;31.40;;;;;;6096969;28;83855;-57
2021/01/21 13:20:43;;;;;;;21.35;10.43;;;25.50;31.10;;;;;;6103836;28;83532;-61
2021/01/21 13:23:43;;;;;;;17.35;10.10;;;25.50;31.50;;;;;;6101766;28;82923;-58
2021/01/21 13:26:44;;;;;;;32.13;14.35;;;25.50;31.20;;;;;;6094259;28;83973;-58
2021/01/21 13:29:45;;;;;;;27.17;14.75;;;25.80;29.20;;;;;;6087517;28;83780;-58
2021/01/21 13:32:45;;;;;;;34.65;16.10;;;25.10;28.20;;;;;;6097877;28;84357;-59
2021/01/21 13:35:48;;;;;;;26.77;15.32;;;24.90;27.30;;;;;;6097852;28;84245;-58
2021/01/21 13:38:48;;;;;;;26.17;14.35;;;24.70;26.90;;;;;;6098040;28;83272;-58
2021/01/21 13:41:49;;;;;;;25.90;14.30;;;24.60;26.60;;;;;;6098122;28;83207;-58
2021/01/21 13:44:49;;;;;;;26.65;14.05;;;24.50;26.40;;;;;;6070313;28;83805;-58
2021/01/21 13:47:50;;;;;;;31.83;15.25;;;24.50;26.50;;;;;;6092698;28;83667;-58
2021/01/21 13:50:50;;;;;;;32.38;13.82;;;24.40;26.50;;;;;;6093101;28;83274;-58
2021/01/21 13:53:51;;;;;;;26.20;14.40;;;24.30;26.40;;;;;;6090898;28;83643;-59
2021/01/21 13:56:52;;;;;;;34.30;15.10;;;24.20;26.60;;;;;;6096842;28;85305;-59
2021/01/21 13:59:52;;;;;;;29.52;14.68;;;24.10;26.50;;;;;;6096847;28;82792;-58
2021/01/21 14:02:53;;;;;;;29.45;13.13;;;24.10;26.80;;;;;;6094777;28;83164;-58
2021/01/21 14:05:53;;;;;;;28.83;13.73;;;24.30;26.70;;;;;;6095503;28;83282;-58
2021/01/21 14:08:56;;;;;;;30.33;12.95;;;24.50;27.40;;;;;;6102427;28;83519;-59
2021/01/21 14:11:57;;;;;;;32.42;12.40;;;24.50;28.10;;;;;;6097446;28;83412;-59
2021/01/21 14:14:57;;;;;;;23.67;11.98;;;24.70;28.00;;;;;;6093014;28;83287;-58
2021/01/21 14:17:58;;;;;;;28.23;10.75;;;24.70;28.20;;;;;;6091293;28;83858;-59
2021/01/21 14:21:00;;;;;;;25.35;12.27;;;24.70;28.10;;;;;;6094704;28;83792;-59
2021/01/21 14:24:01;;;;;;;22.92;11.27;;;24.70;28.20;;;;;;6093282;28;83322;-58
2021/01/21 14:27:01;;;;;;;26.45;11.25;;;24.80;28.40;;;;;;6097644;28;83409;-60
2021/01/21 14:30:02;;;;;;;20.98;10.52;;;24.80;28.50;;;;;;6091852;28;83304;-61
2021/01/21 14:33:02;;;;;;;20.42;10.45;;;24.80;28.70;;;;;;6087984;28;83443;-60
2021/01/21 14:36:03;;;;;;;24.92;11.90;;;24.80;28.90;;;;;;6096299;28;83966;-60
2021/01/21 14:39:04;;;;;;;28.73;10.88;;;24.90;29.30;;;;;;6088438;28;83982;-61
2021/01/21 14:42:04;;;;;;;23.27;10.90;;;24.90;29.30;;;;;;6086341;28;83061;-63
2021/01/21 14:45:05;;;;;;;21.20;9.48;;;24.90;29.50;;;;;;6092093;28;84317;-61
2021/01/21 14:48:05;;;;;;;23.42;10.20;;;24.80;29.90;;;;;;6098100;28;83802;-60
2021/01/21 14:51:06;;;;;;;24.83;10.75;;;24.90;29.30;;;;;;6101735;28;83581;-61
2021/01/21 14:54:07;;;;;;;16.27;10.05;;;24.90;29.70;;;;;;6098215;28;84647;-61
2021/01/21 14:57:07;;;;;;;19.40;9.70;;;24.90;30.70;;;;;;6098837;28;83681;-62
2021/01/21 15:00:08;;;;;;;16.80;9.13;;;24.90;30.40;;;;;;6088848;28;82610;-61
2021/01/21 15:03:08;;;;;;;19.45;9.55;;;24.90;30.50;;;;;;6103019;28;80634;-60
2021/01/21 15:06:09;;;;;;;18.02;9.20;;;24.90;30.50;;;;;;6102693;28;81291;-61
2021/01/21 15:09:09;;;;;;;19.13;9.80;;;24.90;30.70;;;;;;6085198;28;81267;-61
2021/01/21 15:12:10;;;;;;;17.00;8.85;;;24.90;31.00;;;;;;6090566;28;81037;-61
2021/01/21 15:15:11;;;;;;;18.33;9.07;;;24.80;31.10;;;;;;6102976;28;81226;-61
2021/01/21 15:18:11;;;;;;;17.88;9.13;;;24.70;31.20;;;;;;6098849;28;81265;-61
2021/01/21 15:21:12;;;;;;;17.15;8.75;;;24.70;31.20;;;;;;6101039;28;83956;-61
2021/01/21 15:24:12;;;;;;;17.67;9.18;;;24.70;31.30;;;;;;6102585;28;81399;-61
2021/01/21 15:27:13;;;;;;;16.05;8.98;;;24.70;31.40;;;;;;6101478;28;80909;-61
2021/01/21 15:30:13;;;;;;;17.92;7.65;;;24.60;31.50;;;;;;6101498;28;80689;-61
2021/01/21 15:33:14;;;;;;;12.93;7.70;;;24.70;31.60;;;;;;6095083;28;80728;-60